Time;durP1;ratioP1;P1;durP2;ratioP2;P2;SDS_P1;SDS_P2;PMS_P1;PMS_P2;Temp;Humidity;BMP_temperature;BMP_pressure;BME280_temperature;BME280_humidity;BME280_pressure;Samples;Min_cycle;Max_cycle;Signal;HPM_P1;HPM_P2
2022/07/22 00:00:53;;;;;;;10.55;7.00;;;;;;;16.82;71.78;94315.44;4996188;28;20049;-70
2022/07/22 00:03:20;;;;;;;11.13;7.13;;;;;;;16.80;72.12;94313.06;5017228;28;20422;-71
2022/07/22 00:05:46;;;;;;;12.30;7.30;;;;;;;16.75;72.16;94317.19;5007644;28;20431;-71
2022/07/22 00:08:13;;;;;;;10.32;7.07;;;;;;;16.66;72.34;94317.09;5000834;28;20038;-71
2022/07/22 00:10:40;;;;;;;10.03;6.73;;;;;;;16.72;72.21;94320.84;5035996;28;20854;-71
2022/07/22 00:13:07;;;;;;;10.23;7.22;;;;;;;16.68;72.07;94322.97;5002434;28;20434;-71
2022/07/22 00:15:34;;;;;;;9.27;6.80;;;;;;;16.64;72.49;94324.28;5010593;28;20125;-71
2022/07/22 00:18:01;;;;;;;10.30;7.07;;;;;;;16.41;73.56;94326.19;5011405;28;20403;-71
2022/07/22 00:20:28;;;;;;;11.68;7.00;;;;;;;16.08;74.59;94317.34;5010368;28;20060;-71
2022/07/22 00:22:55;;;;;;;9.77;6.93;;;;;;;16.06;74.73;94317.75;5006211;28;20039;-71
2022/07/22 00:25:22;;;;;;;11.20;7.40;;;;;;;16.11;74.79;94319.19;5000272;28;20068;-70
2022/07/22 00:27:49;;;;;;;10.65;7.15;;;;;;;16.18;74.31;94313.47;5010732;28;20405;-71
2022/07/22 00:30:15;;;;;;;10.52;7.40;;;;;;;16.20;74.50;94311.03;5010870;28;20483;-70
2022/07/22 00:32:42;;;;;;;11.23;7.70;;;;;;;16.20;74.51;94313.78;5010777;28;20515;-71
2022/07/22 00:35:09;;;;;;;11.73;7.00;;;;;;;15.98;75.35;94308.91;5022849;28;20493;-71
2022/07/22 00:37:36;;;;;;;11.35;7.53;;;;;;;15.84;76.34;94306.56;4999624;28;20053;-71
2022/07/22 00:40:03;;;;;;;11.43;7.18;;;;;;;15.79;76.67;94307.09;5006756;28;20042;-71
2022/07/22 00:42:30;;;;;;;10.02;7.10;;;;;;;15.80;76.46;94308.66;5041362;28;20056;-70
2022/07/22 00:44:57;;;;;;;10.25;7.47;;;;;;;15.89;76.23;94296.91;5008386;28;20048;-71
2022/07/22 00:47:26;;;;;;;10.67;7.37;;;;;;;15.98;75.63;94297.81;5009035;28;20037;-71
2022/07/22 00:49:53;;;;;;;10.82;7.57;;;;;;;15.95;75.66;94292.38;5010047;28;20041;-71
2022/07/22 00:52:21;;;;;;;10.35;7.25;;;;;;;15.94;75.48;94288.84;4996343;28;20052;-71
2022/07/22 00:54:49;;;;;;;10.85;7.45;;;;;;;15.96;75.50;94289.19;5010337;28;20457;-69
2022/07/22 00:57:16;;;;;;;11.00;7.40;;;;;;;15.85;75.88;94296.25;5009817;28;20037;-69
2022/07/22 00:59:43;;;;;;;13.70;8.73;;;;;;;15.54;77.57;94294.72;5010409;28;20033;-70
2022/07/22 01:02:10;;;;;;;10.82;8.00;;;;;;;15.46;77.70;94287.06;5015864;28;20060;-70
2022/07/22 01:04:37;;;;;;;12.02;8.00;;;;;;;15.53;77.72;94281.31;5009533;28;20434;-70
2022/07/22 01:07:04;;;;;;;11.35;7.63;;;;;;;15.61;77.17;94290.19;4996946;28;20088;-70
2022/07/22 01:09:30;;;;;;;10.52;7.38;;;;;;;15.67;76.92;94280.13;5008165;28;20038;-70
2022/07/22 01:11:57;;;;;;;12.47;7.50;;;;;;;15.68;76.74;94273.41;5010210;28;20050;-70
2022/07/22 01:14:24;;;;;;;10.45;7.30;;;;;;;15.73;76.69;94272.88;5009663;28;20392;-70
2022/07/22 01:16:50;;;;;;;10.95;7.22;;;;;;;15.71;76.43;94276.03;5010323;28;20046;-70
2022/07/22 01:19:17;;;;;;;10.02;7.57;;;;;;;15.78;76.16;94275.88;5010055;28;20491;-70
2022/07/22 01:21:44;;;;;;;10.95;7.28;;;;;;;15.71;76.21;94276.03;5009974;28;20057;-70
2022/07/22 01:24:11;;;;;;;10.90;7.43;;;;;;;15.70;76.25;94284.81;5010460;28;20108;-70
2022/07/22 01:26:37;;;;;;;10.63;7.15;;;;;;;15.63;76.52;94280.22;5009628;28;20686;-70
2022/07/22 01:29:04;;;;;;;10.88;7.85;;;;;;;15.64;76.74;94275.50;5009777;28;20046;-70
2022/07/22 01:31:31;;;;;;;13.65;8.07;;;;;;;15.63;76.78;94276.69;5009588;28;20429;-70
2022/07/22 01:33:58;;;;;;;11.77;7.70;;;;;;;15.58;77.18;94267.72;5014067;28;20056;-70
2022/07/22 01:36:24;;;;;;;11.17;7.70;;;;;;;15.61;76.90;94276.38;5008333;28;20048;-70
2022/07/22 01:38:51;;;;;;;11.18;7.40;;;;;;;15.60;76.93;94272.81;5008498;28;20038;-70
2022/07/22 01:41:18;;;;;;;10.32;7.22;;;;;;;15.56;76.83;94263.84;5009557;28;20049;-70
2022/07/22 01:43:45;;;;;;;10.45;7.35;;;;;;;15.51;77.10;94267.16;5009543;28;20052;-70
2022/07/22 01:46:12;;;;;;;10.68;7.13;;;;;;;15.44;77.60;94275.66;5010174;28;20045;-70
2022/07/22 01:48:40;;;;;;;11.10;7.57;;;;;;;15.28;78.21;94268.97;5009141;28;20049;-70
2022/07/22 01:51:06;;;;;;;10.73;7.82;;;;;;;15.23;78.63;94275.06;5009866;28;20038;-70
2022/07/22 01:53:33;;;;;;;15.10;9.30;;;;;;;15.30;78.06;94265.78;5009097;28;20483;-69
2022/07/22 01:56:00;;;;;;;13.05;8.00;;;;;;;15.24;78.27;94271.06;5009619;28;20107;-70
2022/07/22 01:58:27;;;;;;;11.65;7.75;;;;;;;15.21;78.50;94268.38;5009381;28;20046;-69
2022/07/22 02:00:53;;;;;;;11.60;7.33;;;;;;;15.13;79.07;94263.06;5009693;28;20444;-70
2022/07/22 02:03:20;;;;;;;10.85;8.00;;;;;;;15.09;79.22;94273.44;5018408;28;20042;-70
2022/07/22 02:05:47;;;;;;;11.95;7.53;;;;;;;15.11;79.22;94273.00;4994140;28;20435;-70
2022/07/22 02:08:14;;;;;;;11.15;7.68;;;;;;;15.09;78.85;94273.44;4986544;28;20049;-70
2022/07/22 02:10:41;;;;;;;10.63;7.60;;;;;;;15.08;78.98;94271.13;4989234;28;20834;-70
2022/07/22 02:13:08;;;;;;;10.63;7.70;;;;;;;15.11;78.76;94273.78;4982389;28;20053;-70
2022/07/22 02:15:34;;;;;;;11.93;7.70;;;;;;;15.06;79.09;94271.53;4989484;28;20056;-70
2022/07/22 02:18:11;;;;;;;11.00;7.57;;;;;;;14.83;80.11;94264.28;4991908;28;20039;-70
2022/07/22 02:20:38;;;;;;;11.88;7.78;;;;;;;14.93;79.58;94267.94;4981082;28;20048;-70
2022/07/22 02:23:05;;;;;;;10.80;7.88;;;;;;;14.98;79.43;94267.41;4992764;28;20522;-70
2022/07/22 02:25:33;;;;;;;10.87;7.97;;;;;;;14.97;79.29;94265.88;4973605;28;20124;-70
2022/07/22 02:28:00;;;;;;;9.73;7.40;;;;;;;14.95;79.04;94263.56;4986477;28;20340;-70
2022/07/22 02:30:27;;;;;;;10.48;7.80;;;;;;;14.96;79.05;94258.78;4988553;28;20407;-70
2022/07/22 02:32:54;;;;;;;12.48;7.38;;;;;;;14.92;79.54;94256.13;4973876;28;20411;-70
2022/07/22 02:35:20;;;;;;;13.80;8.30;;;;;;;14.88;79.31;94255.44;4990290;28;20050;-70
2022/07/22 02:37:48;;;;;;;10.20;7.20;;;;;;;14.86;79.41;94262.63;4974017;28;20049;-71
2022/07/22 02:40:15;;;;;;;12.73;7.85;;;;;;;14.89;79.57;94265.28;4989047;28;20048;-68
2022/07/22 02:42:42;;;;;;;12.90;8.55;;;;;;;14.84;80.09;94256.75;4992982;28;20050;-71
2022/07/22 02:45:09;;;;;;;13.20;8.32;;;;;;;14.76;80.50;94259.69;4979903;28;20047;-70
2022/07/22 02:47:54;;;;;;;12.82;8.40;;;;;;;14.74;81.12;94256.56;4986616;28;20043;-71
2022/07/22 02:50:22;;;;;;;12.93;8.57;;;;;;;14.71;80.99;94259.47;4973534;28;20043;-71
2022/07/22 02:52:48;;;;;;;13.35;8.15;;;;;;;14.75;80.49;94255.38;4973306;28;20039;-71
2022/07/22 02:55:15;;;;;;;10.52;8.10;;;;;;;14.78;80.05;94262.78;4973316;28;20327;-70
2022/07/22 02:57:42;;;;;;;12.25;8.68;;;;;;;14.81;80.05;94254.84;4973086;28;20054;-70
2022/07/22 03:00:11;;;;;;;12.13;7.82;;;;;;;14.76;80.03;94256.16;4972542;28;20055;-71
2022/07/22 03:02:39;;;;;;;13.20;8.23;;;;;;;14.67;80.52;94264.28;4983458;28;20053;-71
2022/07/22 03:05:06;;;;;;;12.20;7.93;;;;;;;14.58;81.07;94260.13;4990981;28;20753;-71
2022/07/22 03:07:33;;;;;;;12.93;8.63;;;;;;;14.60;81.11;94264.47;4992436;28;20050;-71
2022/07/22 03:10:00;;;;;;;13.88;8.20;;;;;;;14.48;81.87;94260.38;4992867;28;20054;-70
2022/07/22 03:12:29;;;;;;;11.48;8.68;;;;;;;14.34;82.55;94262.28;4985425;28;20411;-71
2022/07/22 03:14:55;;;;;;;12.23;8.10;;;;;;;14.29;82.94;94262.03;4986781;28;20041;-71
2022/07/22 03:17:22;;;;;;;13.13;8.93;;;;;;;14.36;82.66;94257.09;4973058;28;20053;-71
2022/07/22 03:19:49;;;;;;;14.30;8.45;;;;;;;14.41;82.45;94255.03;4971758;28;20081;-71
2022/07/22 03:22:15;;;;;;;12.82;8.63;;;;;;;14.47;82.00;94259.63;4982486;28;20038;-70
2022/07/22 03:24:42;;;;;;;12.15;8.23;;;;;;;14.54;81.51;94258.66;4975716;28;20042;-71
2022/07/22 03:27:09;;;;;;;11.83;7.97;;;;;;;14.54;81.15;94255.88;4972714;28;20045;-71
2022/07/22 03:29:35;;;;;;;13.15;8.85;;;;;;;14.41;82.22;94255.03;4970874;28;20043;-70
2022/07/22 03:32:02;;;;;;;14.85;8.82;;;;;;;14.43;82.04;94256.16;4972975;28;20041;-71
2022/07/22 03:34:29;;;;;;;12.65;8.63;;;;;;;14.31;82.40;94263.16;4982095;28;20038;-71
2022/07/22 03:36:56;;;;;;;11.45;8.05;;;;;;;14.15;82.84;94252.88;4976623;28;20058;-71
2022/07/22 03:39:22;;;;;;;12.70;8.57;;;;;;;14.18;82.88;94254.00;4982469;28;20046;-71
2022/07/22 03:41:49;;;;;;;13.18;8.35;;;;;;;14.21;82.94;94258.66;4989709;28;20483;-71
2022/07/22 03:44:16;;;;;;;11.85;8.15;;;;;;;14.21;82.68;94260.66;4972471;28;20502;-71
2022/07/22 03:46:43;;;;;;;12.77;8.52;;;;;;;14.17;82.68;94261.50;4972467;28;20035;-71
2022/07/22 03:49:09;;;;;;;11.40;8.32;;;;;;;14.22;82.62;94257.44;4972535;28;20053;-70
2022/07/22 03:51:36;;;;;;;13.77;9.27;;;;;;;14.07;83.04;94257.00;4972134;28;20400;-71
2022/07/22 03:54:03;;;;;;;12.55;8.55;;;;;;;14.23;82.41;94249.97;4972390;28;20047;-71
2022/07/22 03:56:30;;;;;;;13.27;7.97;;;;;;;14.23;82.58;94252.72;4971875;28;20420;-71
2022/07/22 03:58:56;;;;;;;12.15;8.02;;;;;;;14.30;82.06;94249.78;4972181;28;20069;-71
2022/07/22 04:01:24;;;;;;;12.30;8.57;;;;;;;14.42;81.59;94251.06;4972633;28;20076;-71
2022/07/22 04:03:51;;;;;;;12.37;8.40;;;;;;;14.45;81.07;94245.47;4990020;28;20054;-71
2022/07/22 04:06:18;;;;;;;13.55;8.75;;;;;;;14.45;81.33;94251.00;4991093;28;20407;-71
2022/07/22 04:08:44;;;;;;;13.52;8.85;;;;;;;14.33;81.80;94251.69;4986851;28;20491;-71
2022/07/22 04:11:11;;;;;;;13.18;9.20;;;;;;;14.19;82.19;94248.06;4991744;28;20042;-71
2022/07/22 04:13:38;;;;;;;12.35;8.65;;;;;;;14.27;82.26;94248.66;4983918;28;20423;-71
2022/07/22 04:16:05;;;;;;;13.67;8.83;;;;;;;14.26;82.02;94243.56;4975656;28;20472;-71
2022/07/22 04:18:32;;;;;;;13.77;8.88;;;;;;;14.23;82.20;94242.44;4971585;28;20047;-72
2022/07/22 04:21:00;;;;;;;12.98;9.15;;;;;;;14.21;82.50;94242.09;4973492;28;20114;-71
2022/07/22 04:23:26;;;;;;;13.52;8.95;;;;;;;14.28;82.15;94235.63;4983353;28;20047;-71
2022/07/22 04:25:53;;;;;;;14.15;9.52;;;;;;;14.30;82.04;94239.50;4971847;28;20407;-71
2022/07/22 04:28:20;;;;;;;14.83;8.93;;;;;;;14.46;81.45;94237.94;4970950;28;20427;-70
2022/07/22 04:30:47;;;;;;;14.60;8.90;;;;;;;14.47;81.09;94240.28;4971604;28;20049;-71
2022/07/22 04:33:14;;;;;;;12.77;8.55;;;;;;;14.62;80.19;94243.47;4972038;28;20038;-71
2022/07/22 04:35:41;;;;;;;11.80;8.60;;;;;;;14.55;80.36;94244.41;4989679;28;20814;-71
2022/07/22 04:38:09;;;;;;;12.15;8.70;;;;;;;14.22;82.49;94242.88;4990255;28;20050;-71
2022/07/22 04:40:36;;;;;;;13.50;9.30;;;;;;;14.04;83.50;94240.53;5003368;28;20057;-72
2022/07/22 04:43:03;;;;;;;14.27;9.73;;;;;;;14.18;82.89;94234.69;4991088;28;20042;-70
2022/07/22 04:45:29;;;;;;;13.00;9.43;;;;;;;14.38;82.36;94235.34;4990300;28;20058;-71
2022/07/22 04:47:56;;;;;;;14.75;9.57;;;;;;;14.56;81.11;94236.94;4990940;28;20446;-71
2022/07/22 04:50:23;;;;;;;13.15;9.40;;;;;;;14.64;80.80;94237.53;4989167;28;20058;-71
2022/07/22 04:52:49;;;;;;;15.57;9.83;;;;;;;14.67;80.69;94237.44;4990515;28;20509;-71
2022/07/22 04:55:17;;;;;;;15.63;9.88;;;;;;;14.45;81.70;94237.19;4990475;28;20100;-71
2022/07/22 04:57:43;;;;;;;15.27;9.95;;;;;;;14.49;81.56;94235.09;4990384;28;20042;-70
2022/07/22 05:00:11;;;;;;;15.60;9.90;;;;;;;14.62;81.36;94232.44;4990938;28;20042;-70
2022/07/22 05:02:38;;;;;;;14.90;9.98;;;;;;;14.72;80.53;94236.91;4999578;28;20046;-70
2022/07/22 05:05:05;;;;;;;14.13;9.73;;;;;;;14.78;80.47;94234.38;5005015;28;20418;-70
2022/07/22 05:07:31;;;;;;;14.43;9.98;;;;;;;14.55;81.39;94233.38;4990315;28;20050;-71
2022/07/22 05:09:58;;;;;;;13.45;10.15;;;;;;;14.60;81.52;94229.31;4990318;28;20050;-70
2022/07/22 05:12:25;;;;;;;17.55;10.52;;;;;;;14.67;81.40;94231.13;4995500;28;20071;-71
2022/07/22 05:14:52;;;;;;;15.05;9.73;;;;;;;14.77;80.91;94228.09;4975741;28;20050;-71
2022/07/22 05:17:18;;;;;;;15.57;10.90;;;;;;;14.77;80.90;94224.56;4990375;28;20052;-70
2022/07/22 05:19:45;;;;;;;14.77;9.82;;;;;;;15.06;80.31;94227.31;4989939;28;20096;-71
2022/07/22 05:22:12;;;;;;;13.40;9.70;;;;;;;15.05;79.98;94227.75;4990404;28;20053;-71
2022/07/22 05:24:39;;;;;;;14.85;10.32;;;;;;;14.93;80.59;94226.47;4989780;28;20043;-70
2022/07/22 05:27:06;;;;;;;14.07;9.77;;;;;;;14.99;80.75;94230.28;4989953;28;20042;-70
2022/07/22 05:29:33;;;;;;;14.50;10.23;;;;;;;15.04;81.02;94232.50;4989993;28;20041;-71
2022/07/22 05:31:59;;;;;;;15.02;9.68;;;;;;;15.19;80.35;94230.13;4989892;28;20050;-71
2022/07/22 05:34:27;;;;;;;14.50;9.77;;;;;;;15.21;80.42;94229.69;4989896;28;20058;-71
2022/07/22 05:36:53;;;;;;;16.98;10.13;;;;;;;15.32;79.69;94225.41;4989880;28;20045;-71
2022/07/22 05:39:20;;;;;;;14.88;9.90;;;;;;;15.62;78.70;94228.91;4989677;28;20432;-71
2022/07/22 05:41:47;;;;;;;15.77;9.80;;;;;;;16.69;75.38;94224.75;4989927;28;20438;-71
2022/07/22 05:44:18;;;;;;;13.23;9.00;;;;;;;19.10;66.19;94221.94;4989870;28;20042;-71
2022/07/22 05:46:44;;;;;;;12.73;9.18;;;;;;;21.07;59.05;94213.97;4993479;28;20045;-71
2022/07/22 05:49:11;;;;;;;11.77;9.10;;;;;;;21.87;55.75;94214.97;4979964;28;20544;-65
2022/07/22 05:51:38;;;;;;;11.88;8.90;;;;;;;22.93;52.05;94217.03;4971166;28;20042;-66
2022/07/22 05:54:05;;;;;;;11.80;8.73;;;;;;;24.75;47.50;94209.09;4990574;28;20056;-68
2022/07/22 05:56:32;;;;;;;11.63;8.13;;;;;;;25.64;45.59;94205.16;4988681;28;20050;-67
2022/07/22 05:58:59;;;;;;;10.27;8.32;;;;;;;25.45;45.41;94207.63;4979973;28;20049;-68
2022/07/22 06:01:26;;;;;;;11.32;8.45;;;;;;;25.06;46.64;94213.88;4981462;28;20570;-68
2022/07/22 06:03:53;;;;;;;11.10;8.20;;;;;;;26.47;43.47;94206.47;4987727;28;20053;-71
2022/07/22 06:06:20;;;;;;;10.47;7.93;;;;;;;26.70;42.54;94210.06;4983235;28;20055;-68
2022/07/22 06:08:47;;;;;;;10.85;7.80;;;;;;;28.00;40.32;94205.94;4972144;28;20039;-67
2022/07/22 06:11:19;;;;;;;11.18;8.60;;;;;;;28.43;39.05;94214.59;4988363;28;20663;-68
2022/07/22 06:13:46;;;;;;;10.95;8.07;;;;;;;28.57;38.53;94203.44;4975439;28;20065;-70
2022/07/22 06:16:13;;;;;;;10.25;7.75;;;;;;;29.89;36.30;94208.63;4969982;28;20050;-67
2022/07/22 06:18:40;;;;;;;9.07;7.90;;;;;;;29.04;37.83;94208.88;4981638;28;20829;-68
2022/07/22 06:21:07;;;;;;;9.27;7.80;;;;;;;29.02;38.04;94214.31;4969610;28;20057;-66
2022/07/22 06:23:34;;;;;;;9.32;8.30;;;;;;;29.93;36.00;94209.09;4969486;28;20050;-70
2022/07/22 06:26:01;;;;;;;9.27;7.88;;;;;;;31.92;32.88;94204.22;4968560;28;20058;-71
2022/07/22 06:28:28;;;;;;;10.07;7.68;;;;;;;32.02;33.31;94200.38;4969051;28;20057;-65
2022/07/22 06:30:55;;;;;;;8.90;7.67;;;;;;;32.89;31.39;94206.31;4969492;28;20441;-66
2022/07/22 06:33:22;;;;;;;9.90;7.43;;;;;;;33.06;31.12;94208.69;4985219;28;20063;-67
2022/07/22 06:35:49;;;;;;;10.13;7.68;;;;;;;33.72;29.74;94210.25;4987908;28;20042;-63
2022/07/22 06:38:16;;;;;;;8.85;6.85;;;;;;;32.84;31.42;94205.13;4988572;28;20042;-68
2022/07/22 06:40:56;;;;;;;8.65;6.75;;;;;;;32.79;31.59;94206.03;4986341;28;20047;-66
2022/07/22 06:43:24;;;;;;;7.80;6.90;;;;;;;34.25;29.53;94209.69;4975138;28;20054;-66
2022/07/22 06:45:50;;;;;;;8.88;6.80;;;;;;;35.13;28.61;94215.03;4991567;28;20069;-71
2022/07/22 06:48:17;;;;;;;9.48;6.65;;;;;;;34.64;29.49;94204.78;4976232;28;20042;-66
2022/07/22 06:50:45;;;;;;;8.18;6.45;;;;;;;35.04;28.66;94209.19;4973046;28;20042;-67
2022/07/22 06:53:19;;;;;;;11.00;6.68;;;;;;;35.83;27.52;94194.94;4973163;28;20046;-68
2022/07/22 06:55:45;;;;;;;9.10;6.77;;;;;;;34.21;29.73;94207.22;4972715;28;20510;-66
2022/07/22 06:58:12;;;;;;;8.73;7.10;;;;;;;33.30;30.98;94201.84;4982906;28;20069;-67
2022/07/22 07:00:39;;;;;;;8.18;6.25;;;;;;;31.03;32.06;94208.34;4979033;28;20046;-69
2022/07/22 07:03:06;;;;;;;7.78;6.32;;;;;;;32.81;30.37;94201.31;4992791;28;20081;-66
2022/07/22 07:05:52;;;;;;;8.27;6.57;;;;;;;32.84;29.99;94205.13;4989019;28;21221;-69
2022/07/22 07:08:19;;;;;;;7.93;6.80;;;;;;;30.96;32.06;94204.06;4973080;28;20046;-65
2022/07/22 07:10:46;;;;;;;7.47;5.90;;;;;;;34.53;27.91;94190.91;4988218;28;20415;-65
2022/07/22 07:13:14;;;;;;;8.23;6.50;;;;;;;36.24;24.52;94199.34;4973600;28;20038;-65
2022/07/22 07:15:41;;;;;;;8.07;5.93;;;;;;;37.76;23.12;94195.75;4972132;28;21694;-65
2022/07/22 07:18:08;;;;;;;7.35;5.95;;;;;;;37.15;23.66;94194.28;4982122;28;20076;-70
2022/07/22 07:20:35;;;;;;;7.23;5.57;;;;;;;37.37;22.45;94197.53;4977248;28;20483;-68
2022/07/22 07:23:02;;;;;;;7.63;5.90;;;;;;;36.45;24.02;94192.53;4972592;28;20046;-70
2022/07/22 07:25:29;;;;;;;7.35;5.85;;;;;;;37.63;23.00;94189.63;4972757;28;20073;-67
2022/07/22 07:27:56;;;;;;;7.38;5.40;;;;;;;37.89;22.51;94182.41;4972477;28;20043;-68
2022/07/22 07:30:23;;;;;;;7.10;6.00;;;;;;;32.37;29.80;94189.72;4972650;28;20432;-71
2022/07/22 07:32:50;;;;;;;8.80;6.33;;;;;;;33.13;28.17;94177.47;4986326;28;20050;-70
2022/07/22 07:35:17;;;;;;;9.20;6.93;;;;;;;29.89;33.74;94186.00;4986250;28;20045;-68
2022/07/22 07:37:44;;;;;;;9.63;7.43;;;;;;;29.25;34.95;94184.50;4984196;28;20507;-67
2022/07/22 07:40:11;;;;;;;9.82;7.38;;;;;;;30.35;33.07;94181.19;4972922;28;20043;-67
2022/07/22 07:42:38;;;;;;;9.45;7.00;;;;;;;32.14;30.70;94178.16;4972446;28;20046;-67
2022/07/22 07:45:12;;;;;;;9.70;6.93;;;;;;;31.24;32.09;94175.19;4973075;28;20407;-67
2022/07/22 07:47:39;;;;;;;8.98;6.80;;;;;;;31.09;32.23;94168.53;4972537;28;20387;-70
2022/07/22 07:50:07;;;;;;;9.07;7.07;;;;;;;30.07;33.30;94173.13;4972646;28;20798;-67
2022/07/22 07:52:47;;;;;;;8.20;6.60;;;;;;;30.57;32.72;94180.03;4972194;28;20112;-69
2022/07/22 07:55:19;;;;;;;8.95;6.78;;;;;;;29.84;34.11;94181.94;4972263;28;20050;-67
2022/07/22 07:57:48;;;;;;;7.87;6.80;;;;;;;29.43;35.02;94174.50;4972498;28;20118;-67
2022/07/22 08:00:19;;;;;;;7.72;6.88;;;;;;;30.05;34.06;94182.13;4972243;28;20039;-65
2022/07/22 08:02:46;;;;;;;9.75;6.60;;;;;;;29.79;34.63;94173.53;4984095;28;20046;-70
2022/07/22 08:05:14;;;;;;;9.82;7.82;;;;;;;29.23;34.98;94166.56;4983263;28;20065;-67
2022/07/22 08:07:41;;;;;;;7.97;7.18;;;;;;;30.37;33.89;94166.50;4971512;28;20850;-67
2022/07/22 08:10:08;;;;;;;9.03;7.30;;;;;;;28.86;35.29;94170.81;4985768;28;20504;-71
2022/07/22 08:12:57;;;;;;;9.18;7.30;;;;;;;31.34;32.07;94161.31;4990783;28;20086;-70
2022/07/22 08:15:26;;;;;;;9.85;7.43;;;;;;;30.06;33.61;94168.75;4990846;28;20043;-68
2022/07/22 08:17:54;;;;;;;7.75;6.95;;;;;;;31.52;31.77;94158.91;4991321;28;20045;-68
2022/07/22 08:20:23;;;;;;;8.25;6.30;;;;;;;36.14;25.86;94164.88;4990950;28;20050;-68
2022/07/22 08:22:51;;;;;;;10.00;6.70;;;;;;;34.98;26.38;94161.66;4991138;28;20048;-69
2022/07/22 08:25:18;;;;;;;8.43;6.47;;;;;;;36.40;24.00;94157.09;4991193;28;20046;-68
2022/07/22 08:27:46;;;;;;;11.07;6.50;;;;;;;33.16;28.25;94161.38;4990960;28;20042;-68
2022/07/22 08:30:14;;;;;;;8.75;6.60;;;;;;;31.92;30.58;94161.63;4991063;28;20193;-68
2022/07/22 08:32:40;;;;;;;10.77;6.90;;;;;;;33.72;28.11;94156.91;4990794;28;20692;-68
2022/07/22 08:35:08;;;;;;;8.47;7.13;;;;;;;32.80;29.16;94157.16;5001075;28;20719;-70
2022/07/22 08:37:36;;;;;;;8.63;6.82;;;;;;;30.90;31.22;94155.25;4990812;28;20050;-68
2022/07/22 08:40:04;;;;;;;8.77;7.13;;;;;;;30.26;32.95;94151.19;4990871;28;20049;-67
2022/07/22 08:42:36;;;;;;;8.82;6.90;;;;;;;33.73;27.98;94154.84;4990741;28;20050;-68
2022/07/22 08:45:03;;;;;;;8.52;6.60;;;;;;;34.68;26.01;94148.19;4990958;28;20046;-69
2022/07/22 08:47:32;;;;;;;8.70;6.77;;;;;;;32.26;29.24;94153.09;4987883;28;20605;-69
2022/07/22 08:50:10;;;;;;;8.63;7.05;;;;;;;31.99;30.27;94146.75;4990353;28;20046;-68
2022/07/22 08:52:37;;;;;;;8.43;7.00;;;;;;;32.79;29.24;94132.88;4990552;28;20038;-68
2022/07/22 08:55:06;;;;;;;8.10;6.50;;;;;;;33.13;28.23;94137.66;4983754;28;20042;-67
2022/07/22 08:57:33;;;;;;;10.80;6.60;;;;;;;32.86;28.20;94130.66;4990501;28;20411;-68
2022/07/22 09:00:00;;;;;;;9.53;7.10;;;;;;;31.96;29.84;94134.44;4990729;28;20053;-68
2022/07/22 09:02:35;;;;;;;9.02;6.70;;;;;;;32.30;28.95;94127.97;4999373;28;20514;-68
2022/07/22 09:05:04;;;;;;;8.20;6.55;;;;;;;31.97;31.29;94133.09;4992912;28;20042;-68
2022/07/22 09:07:56;;;;;;;9.70;7.05;;;;;;;31.71;30.25;94133.97;4985652;28;21603;-72
2022/07/22 09:10:23;;;;;;;8.32;7.00;;;;;;;32.71;28.01;94123.56;4970749;28;20403;-68
2022/07/22 09:13:01;;;;;;;8.50;6.83;;;;;;;31.42;29.97;94128.13;4971200;28;20065;-67
2022/07/22 09:15:30;;;;;;;9.02;7.03;;;;;;;31.93;29.84;94126.25;4970829;28;20049;-70
2022/07/22 09:17:58;;;;;;;9.25;7.07;;;;;;;32.19;29.31;94122.56;4976137;28;20065;-71
2022/07/22 09:20:31;;;;;;;7.80;6.70;;;;;;;30.36;32.74;94130.97;4981121;28;20415;-67
2022/07/22 09:22:58;;;;;;;7.88;6.70;;;;;;;31.52;29.66;94134.16;4980505;28;20051;-67
2022/07/22 09:25:30;;;;;;;8.97;6.80;;;;;;;32.36;28.86;94133.50;4970640;28;20043;-69
2022/07/22 09:28:05;;;;;;;7.47;6.40;;;;;;;32.03;29.28;94125.25;4969998;28;20045;-67
2022/07/22 09:30:35;;;;;;;8.23;6.82;;;;;;;32.15;29.35;94122.88;4984243;28;20116;-70
2022/07/22 09:33:03;;;;;;;8.30;6.65;;;;;;;33.83;27.23;94128.13;4970882;28;20051;-67
2022/07/22 09:35:32;;;;;;;7.05;6.15;;;;;;;35.64;24.23;94116.19;4988745;28;20100;-68
2022/07/22 09:38:01;;;;;;;9.47;6.10;;;;;;;36.52;22.85;94121.03;4971632;28;20387;-68
2022/07/22 09:40:34;;;;;;;8.18;5.80;;;;;;;34.40;24.55;94114.91;4979761;28;20158;-71
2022/07/22 09:43:04;;;;;;;8.82;5.82;;;;;;;34.51;24.48;94110.91;4973755;28;20035;-69
2022/07/22 09:45:32;;;;;;;7.70;6.40;;;;;;;33.42;26.48;94107.09;4970174;28;20050;-71
2022/07/22 09:48:01;;;;;;;7.90;6.00;;;;;;;33.14;26.07;94104.31;4989543;28;20043;-68
2022/07/22 09:50:32;;;;;;;7.50;6.07;;;;;;;33.74;26.81;94110.81;4986392;28;20054;-67
2022/07/22 09:53:00;;;;;;;8.00;6.10;;;;;;;35.41;25.02;94097.06;4979547;28;20124;-68
2022/07/22 09:55:30;;;;;;;7.10;6.00;;;;;;;33.46;26.61;94097.41;4980518;28;20495;-67
2022/07/22 09:57:57;;;;;;;8.70;6.28;;;;;;;32.59;28.12;94094.69;4975896;28;20046;-67
2022/07/22 10:00:26;;;;;;;8.05;6.20;;;;;;;32.49;27.87;94093.63;4989798;28;20137;-68
2022/07/22 10:02:58;;;;;;;8.37;7.00;;;;;;;31.61;28.54;94088.31;4988300;28;20054;-71
2022/07/22 10:05:29;;;;;;;8.18;6.30;;;;;;;34.13;25.66;94095.31;4989613;28;20423;-71
2022/07/22 10:07:57;;;;;;;8.65;6.50;;;;;;;35.92;24.13;94075.13;4977247;28;20046;-69
2022/07/22 10:10:27;;;;;;;6.88;6.00;;;;;;;36.65;22.45;94084.91;4970024;28;20098;-71
2022/07/22 10:12:56;;;;;;;7.28;6.47;;;;;;;32.95;26.42;94082.56;4970767;28;20062;-71
2022/07/22 10:15:24;;;;;;;8.73;6.70;;;;;;;33.80;26.45;94080.84;4970206;28;20175;-71
2022/07/22 10:18:05;;;;;;;8.45;5.93;;;;;;;35.25;24.70;94078.50;4970582;28;20046;-68
2022/07/22 10:20:32;;;;;;;10.73;6.45;;;;;;;33.25;27.45;94081.22;4975722;28;20050;-67
2022/07/22 10:23:01;;;;;;;8.85;6.20;;;;;;;34.09;26.35;94082.78;4977965;28;20132;-67
2022/07/22 10:25:58;;;;;;;9.00;6.32;;;;;;;33.11;27.19;94079.84;4970219;28;20475;-71
2022/07/22 10:28:32;;;;;;;8.10;6.23;;;;;;;34.06;26.31;94075.38;4968310;28;20053;-68
2022/07/22 10:31:27;;;;;;;9.07;6.50;;;;;;;32.98;26.41;94075.78;4976073;28;20065;-67
2022/07/22 10:33:56;;;;;;;9.90;6.40;;;;;;;33.58;26.09;94073.72;4978161;28;20628;-69
2022/07/22 10:36:42;;;;;;;8.02;6.18;;;;;;;35.09;24.80;94069.19;4990425;28;20056;-67
2022/07/22 10:39:11;;;;;;;9.48;6.70;;;;;;;30.27;31.16;94061.34;4996616;28;20054;-67
2022/07/22 10:41:41;;;;;;;8.73;6.70;;;;;;;30.33;31.20;94061.28;5044306;28;20048;-67
2022/07/22 10:44:48;;;;;;;9.07;6.45;;;;;;;31.49;29.51;94063.56;5012276;28;20401;-65
2022/07/22 10:47:55;;;;;;;6.50;5.72;;;;;;;34.83;24.06;94053.31;5011062;28;20410;-71
2022/07/22 10:50:37;;;;;;;7.25;5.68;;;;;;;34.49;24.14;94048.03;5001628;28;20046;-70
2022/07/22 10:53:10;;;;;;;7.80;6.00;;;;;;;33.88;23.97;94066.63;5012415;28;20042;-69
2022/07/22 10:55:39;;;;;;;7.53;6.00;;;;;;;32.78;24.73;94057.47;5012626;28;20053;-68
2022/07/22 10:58:33;;;;;;;7.60;5.65;;;;;;;32.94;24.32;94058.31;5012091;28;20077;-68
2022/07/22 11:01:09;;;;;;;7.72;5.55;;;;;;;33.90;24.50;94051.81;5011449;28;20046;-69
2022/07/22 11:03:38;;;;;;;7.70;5.80;;;;;;;33.57;24.64;94052.31;5022689;28;20048;-69
2022/07/22 11:06:19;;;;;;;7.28;5.53;;;;;;;32.10;25.31;94046.41;5012502;28;20394;-70
2022/07/22 11:08:50;;;;;;;7.30;5.70;;;;;;;29.79;30.02;94049.06;5011419;28;20913;-67
2022/07/22 11:11:18;;;;;;;7.32;5.95;;;;;;;30.82;28.24;94044.59;5011881;28;20042;-64
2022/07/22 11:13:46;;;;;;;9.40;5.80;;;;;;;31.08;29.06;94050.81;5012060;28;20450;-67
2022/07/22 11:16:24;;;;;;;8.68;6.03;;;;;;;31.05;28.24;94047.00;5011734;28;20517;-66
2022/07/22 11:18:56;;;;;;;8.50;6.57;;;;;;;30.94;30.21;94050.81;4997479;28;20777;-66
2022/07/22 11:21:26;;;;;;;8.33;6.80;;;;;;;31.00;30.34;94045.78;5011525;28;20503;-68
2022/07/22 11:23:58;;;;;;;8.77;6.50;;;;;;;31.47;29.06;94038.59;4999141;28;20068;-66
2022/07/22 11:26:35;;;;;;;8.30;6.40;;;;;;;31.82;28.69;94027.97;5011604;28;20518;-67
2022/07/22 11:29:02;;;;;;;8.68;6.00;;;;;;;32.16;28.21;94027.88;5011653;28;20052;-66
2022/07/22 11:31:29;;;;;;;7.63;6.68;;;;;;;31.05;29.19;94030.00;5011250;28;20064;-67
2022/07/22 11:34:11;;;;;;;8.90;6.67;;;;;;;29.45;32.18;94024.13;5014221;28;20034;-69
2022/07/22 11:36:40;;;;;;;8.48;7.00;;;;;;;29.47;32.19;94024.34;5011778;28;20483;-66